Portada
METAR-TAF:

METAR-TAF

Aeroports :

Abumusa, Iran

latitud: 25-52-33N, longitud: 055-02-01E, altitud: 7 m

Observació

L'informe es va fer fa 21 minuts, a les 11:00 UTC
Vent 12 kt del Oest
Temperatura 37°C
Humitat 60%
Pressió 992 hPa
Visibilitat: 8000 m

METAR: OIBA 241100Z 27012KT 8000 NSC 37/28 Q0992

Hora: 15:51 (11:21 UTC)


TAF: manca

Observacions i pronòstics meteorològics de més de 4000 aeroports (METAR i TAF).

Les estacions disponibles són els punts grocs i vermells al mapa.

Posi el ratolí al punt desitjat per veure el nom de l'estació.

Feu clic per veure les observacions i els pronòstics meteorològics.

Per canviar el mapa: feu clic els botons verds amb una creu de color negre per apropar; al botó verd amb un guió per allunyar la imatge; o en les fletxes verdes per a mapes adjacents.


METAR-TAF: